Current | Forecast
Updated: 5:30 PM CET on February 21, 2018
Observed at Granada, Spain
Temperature 12°C
Humidity 33%
Dew Point -4°C
Wind NNE at 20 km/h
Pressure 1006 hPa (Steady)
Conditions Partly Cloudy
Visibility 10.0 kilometers
UV 1 out of 16
Clouds (FEW) : 1828 m
Yesterday's Maximum 17°C
Yesterday's Minimum 0°C approx.
Yesterday's Heating Degree Days 18 approx.
Sunrise7:56 AM CET
Sunset7:01 PM CET
Moon Rise11:12 AM CET
Moon Set
Moon PhaseMoon Phase
Waxing Crescent
Raw METARMETAR LEGR 211630Z 03011KT 360V070 9999 FEW060 12/M04 Q1006


Monday
. High: 91° F.
Tuesday
. High: 91° F.
Wednesday
. High: 77° F.
Thursday
. High: 82° F.
Friday
. High: 86° F.
Saturday
. High: 86° F.
Sunday
. High: 87° F.
Monday
. High: 93° F.

Click here for Marine Information
Scientific forecaster discussion (NWS)

Units: English | Metric

Find the Weather for any City, State or Zipcode, or Country:

U.S. State List | Severe Weather | Tropical Storms | Ski Conditions
United States | Canada | Central America | South America | Asia | Europe | Australia | Africa | Islands

Weather Underground

© Copyright 2018
The Weather Company, LLC